createdAt,value
2022-10-20T00:00:24.388Z,1023.05
2022-10-20T00:01:24.388Z,1023.10
2022-10-20T00:02:24.428Z,1023.07
2022-10-20T00:03:24.386Z,1023.09
2022-10-20T00:04:24.384Z,1023.09
2022-10-20T00:05:24.375Z,1023.04
2022-10-20T00:06:24.383Z,1023.06
2022-10-20T00:07:24.376Z,1023.03
2022-10-20T00:08:24.382Z,1023.06
2022-10-20T00:09:24.369Z,1023.06
2022-10-20T00:10:24.365Z,1023.04
2022-10-20T00:11:24.366Z,1023.05
2022-10-20T00:12:24.359Z,1023.04
2022-10-20T00:13:24.358Z,1023.00
2022-10-20T00:14:24.358Z,1022.98
2022-10-20T00:15:24.354Z,1023.02
2022-10-20T00:16:24.355Z,1023.02
2022-10-20T00:17:24.351Z,1023.04
2022-10-20T00:18:24.372Z,1023.04
2022-10-20T00:19:24.344Z,1023.02
2022-10-20T00:20:24.350Z,1023.06
2022-10-20T00:21:24.342Z,1023.05
2022-10-20T00:22:24.342Z,1023.03
2022-10-20T00:23:24.342Z,1023.08
2022-10-20T00:24:24.330Z,1023.08
2022-10-20T00:25:24.335Z,1023.11
2022-10-20T00:26:24.327Z,1023.07
2022-10-20T00:27:24.326Z,1023.10
2022-10-20T00:28:24.325Z,1023.08
2022-10-20T00:29:24.330Z,1023.10
2022-10-20T00:30:25.683Z,1023.12
2022-10-20T00:31:24.336Z,1023.09
2022-10-20T00:32:24.315Z,1023.08
2022-10-20T00:33:24.317Z,1023.07
2022-10-20T00:34:24.332Z,1023.07
2022-10-20T00:35:24.312Z,1023.04
2022-10-20T00:36:24.312Z,1023.04
2022-10-20T00:37:24.305Z,1023.01
2022-10-20T00:38:24.309Z,1023.02
2022-10-20T00:39:24.300Z,1023.03
2022-10-20T00:40:24.297Z,1023.03
2022-10-20T00:41:24.298Z,1023.00
2022-10-20T00:42:24.292Z,1022.98
2022-10-20T00:43:24.292Z,1022.99
2022-10-20T00:44:24.287Z,1022.93
2022-10-20T00:45:24.289Z,1022.89
2022-10-20T00:46:24.285Z,1022.95
2022-10-20T00:47:24.284Z,1022.91
2022-10-20T00:48:24.280Z,1022.87
2022-10-20T00:49:24.294Z,1022.89
2022-10-20T00:50:24.300Z,1022.91
2022-10-20T00:51:24.273Z,1022.86
2022-10-20T00:52:24.272Z,1022.87
2022-10-20T00:53:24.271Z,1022.86
2022-10-20T00:54:24.268Z,1022.81
2022-10-20T00:55:24.267Z,1022.77
2022-10-20T00:56:24.259Z,1022.77
2022-10-20T00:57:24.258Z,1022.78
2022-10-20T00:58:24.253Z,1022.75
2022-10-20T00:59:24.254Z,1022.75
2022-10-20T01:00:24.254Z,1022.70
2022-10-20T01:01:24.271Z,1022.73
2022-10-20T01:02:24.246Z,1022.68
2022-10-20T01:03:24.246Z,1022.71
2022-10-20T01:04:24.240Z,1022.69
2022-10-20T01:05:24.248Z,1022.65
2022-10-20T01:06:24.262Z,1022.67
2022-10-20T01:07:24.234Z,1022.67
2022-10-20T01:08:24.235Z,1022.67
2022-10-20T01:09:24.228Z,1022.66
2022-10-20T01:10:24.226Z,1022.65
2022-10-20T01:11:24.228Z,1022.65
2022-10-20T01:12:24.219Z,1022.65
2022-10-20T01:13:24.218Z,1022.66
2022-10-20T01:14:24.219Z,1022.65
2022-10-20T01:16:24.214Z,1022.61
2022-10-20T01:17:24.211Z,1022.62
2022-10-20T01:18:24.202Z,1022.57
2022-10-20T01:19:24.203Z,1022.58
2022-10-20T01:20:24.206Z,1022.54
2022-10-20T01:21:24.201Z,1022.58
2022-10-20T01:22:24.222Z,1022.59
2022-10-20T01:23:24.193Z,1022.58
2022-10-20T01:24:24.288Z,1022.56
2022-10-20T01:25:24.191Z,1022.55
2022-10-20T01:26:24.188Z,1022.56
2022-10-20T01:27:24.188Z,1022.52
2022-10-20T01:28:24.182Z,1022.52
2022-10-20T01:29:24.184Z,1022.49
2022-10-20T01:30:24.180Z,1022.49
2022-10-20T01:31:24.268Z,1022.48
2022-10-20T01:32:24.171Z,1022.48
2022-10-20T01:33:24.237Z,1022.44
2022-10-20T01:34:24.165Z,1022.44
2022-10-20T01:35:24.167Z,1022.42
2022-10-20T01:36:24.162Z,1022.38
2022-10-20T01:37:34.115Z,1022.39
2022-10-20T01:38:24.187Z,1022.38
2022-10-20T01:39:24.161Z,1022.35
2022-10-20T01:40:24.153Z,1022.32
2022-10-20T01:41:24.152Z,1022.31
2022-10-20T01:42:24.156Z,1022.30
2022-10-20T01:43:24.148Z,1022.29
2022-10-20T01:44:24.154Z,1022.21
2022-10-20T01:45:24.147Z,1022.20
2022-10-20T01:46:24.136Z,1022.13
2022-10-20T01:47:24.137Z,1022.14
2022-10-20T01:48:24.133Z,1022.12
2022-10-20T01:49:24.129Z,1022.13
2022-10-20T01:50:24.125Z,1022.10
2022-10-20T01:51:24.126Z,1022.15
2022-10-20T01:52:24.120Z,1022.14
2022-10-20T01:53:24.123Z,1022.17
2022-10-20T01:54:24.141Z,1022.19
2022-10-20T01:55:24.115Z,1022.14
2022-10-20T01:56:24.110Z,1022.16
2022-10-20T01:57:24.122Z,1022.10
2022-10-20T01:58:24.114Z,1022.17
2022-10-20T01:59:24.108Z,1022.18
2022-10-20T02:00:24.103Z,1022.15
2022-10-20T02:01:24.136Z,1022.11
2022-10-20T02:02:24.097Z,1022.14
2022-10-20T02:03:24.095Z,1022.10
2022-10-20T02:04:24.087Z,1022.07
2022-10-20T02:05:24.092Z,1022.03
2022-10-20T02:06:24.090Z,1021.98
2022-10-20T02:07:24.084Z,1021.97
2022-10-20T02:08:24.081Z,1021.95
2022-10-20T02:09:24.074Z,1021.97
2022-10-20T02:10:24.092Z,1021.97
2022-10-20T02:11:24.078Z,1021.96
2022-10-20T02:12:24.069Z,1021.94
2022-10-20T02:13:24.068Z,1021.93
2022-10-20T02:14:24.071Z,1021.91
2022-10-20T02:15:24.066Z,1021.92
2022-10-20T02:16:24.066Z,1021.88
2022-10-20T02:17:24.058Z,1021.88
2022-10-20T02:18:24.057Z,1021.85
2022-10-20T02:19:24.056Z,1021.84
2022-10-20T02:20:24.056Z,1021.79
2022-10-20T02:21:24.050Z,1021.77
2022-10-20T02:22:24.049Z,1021.71
2022-10-20T02:23:24.041Z,1021.74
2022-10-20T02:24:24.047Z,1021.72
2022-10-20T02:25:24.039Z,1021.75
2022-10-20T02:26:24.056Z,1021.75
2022-10-20T02:27:24.033Z,1021.75
2022-10-20T02:28:24.028Z,1021.71
2022-10-20T02:29:24.028Z,1021.71
2022-10-20T02:30:24.031Z,1021.76
2022-10-20T02:31:24.036Z,1021.72
2022-10-20T02:32:24.016Z,1021.72
2022-10-20T02:33:24.017Z,1021.72
2022-10-20T02:34:24.013Z,1021.73
2022-10-20T02:35:24.012Z,1021.71
2022-10-20T02:36:24.007Z,1021.69
2022-10-20T02:37:24.009Z,1021.70
2022-10-20T02:38:24.007Z,1021.69
2022-10-20T02:39:23.999Z,1021.65
2022-10-20T02:40:23.996Z,1021.65
2022-10-20T02:41:24.002Z,1021.65
2022-10-20T02:42:24.015Z,1021.64
2022-10-20T02:43:23.989Z,1021.67
2022-10-20T02:44:23.983Z,1021.65
2022-10-20T02:45:23.986Z,1021.68
2022-10-20T02:46:23.981Z,1021.63
2022-10-20T02:47:23.982Z,1021.66
2022-10-20T02:48:23.975Z,1021.61
2022-10-20T02:49:23.975Z,1021.61
2022-10-20T02:50:23.971Z,1021.58
2022-10-20T02:51:23.970Z,1021.60
2022-10-20T02:52:23.972Z,1021.61
2022-10-20T02:53:23.963Z,1021.59
2022-10-20T02:54:23.957Z,1021.61
2022-10-20T02:55:23.965Z,1021.61
2022-10-20T02:56:25.489Z,1021.58
2022-10-20T02:57:23.954Z,1021.59
2022-10-20T02:58:23.968Z,1021.57
2022-10-20T02:59:23.951Z,1021.59
2022-10-20T03:00:23.942Z,1021.61
2022-10-20T03:01:23.998Z,1021.57
2022-10-20T03:02:23.944Z,1021.57
2022-10-20T03:03:23.938Z,1021.57
2022-10-20T03:05:23.940Z,1021.55
2022-10-20T03:06:23.930Z,1021.49
2022-10-20T03:07:23.929Z,1021.47
2022-10-20T03:08:23.924Z,1021.43
2022-10-20T03:09:23.926Z,1021.42
2022-10-20T03:10:23.924Z,1021.39
2022-10-20T03:11:23.917Z,1021.39
2022-10-20T03:12:25.895Z,1021.44
2022-10-20T03:13:23.964Z,1021.38
2022-10-20T03:14:23.933Z,1021.44
2022-10-20T03:15:23.909Z,1021.42
2022-10-20T03:16:23.902Z,1021.43
2022-10-20T03:17:23.905Z,1021.43
2022-10-20T03:18:23.897Z,1021.45
2022-10-20T03:19:23.895Z,1021.45
2022-10-20T03:20:23.892Z,1021.40
2022-10-20T03:21:23.896Z,1021.41
2022-10-20T03:22:23.959Z,1021.40
2022-10-20T03:23:23.885Z,1021.41
2022-10-20T03:24:23.884Z,1021.40
2022-10-20T03:25:23.879Z,1021.40
2022-10-20T03:26:23.873Z,1021.40
2022-10-20T03:27:23.874Z,1021.41
2022-10-20T03:28:23.874Z,1021.41
2022-10-20T03:29:23.864Z,1021.38
2022-10-20T03:30:23.886Z,1021.35
2022-10-20T03:31:23.869Z,1021.38
2022-10-20T03:32:23.859Z,1021.32
2022-10-20T03:33:23.857Z,1021.31
2022-10-20T03:34:23.856Z,1021.33
2022-10-20T03:35:23.856Z,1021.26
2022-10-20T03:36:23.851Z,1021.26
2022-10-20T03:37:23.853Z,1021.25
2022-10-20T03:38:23.849Z,1021.28
2022-10-20T03:39:23.843Z,1021.26
2022-10-20T03:40:23.839Z,1021.28
2022-10-20T03:41:23.840Z,1021.29
2022-10-20T03:42:23.836Z,1021.29
2022-10-20T03:43:23.833Z,1021.29
2022-10-20T03:44:23.831Z,1021.26
2022-10-20T03:45:23.826Z,1021.25
2022-10-20T03:46:23.848Z,1021.22
2022-10-20T03:47:23.821Z,1021.25
2022-10-20T03:48:23.820Z,1021.22
2022-10-20T03:49:23.814Z,1021.24
2022-10-20T03:50:23.819Z,1021.21
2022-10-20T03:51:23.811Z,1021.23
2022-10-20T03:52:23.811Z,1021.22
2022-10-20T03:53:23.807Z,1021.23
2022-10-20T03:54:23.803Z,1021.24
2022-10-20T03:55:23.799Z,1021.24
2022-10-20T03:56:23.799Z,1021.22
2022-10-20T03:57:23.794Z,1021.23
2022-10-20T03:58:23.795Z,1021.23
2022-10-20T03:59:26.728Z,1021.22
2022-10-20T04:00:23.789Z,1021.19
2022-10-20T04:01:23.800Z,1021.18
2022-10-20T04:02:23.802Z,1021.16
2022-10-20T04:03:23.778Z,1021.17
2022-10-20T04:04:23.774Z,1021.17
2022-10-20T04:05:23.778Z,1021.18
2022-10-20T04:06:23.772Z,1021.20
2022-10-20T04:07:23.773Z,1021.18
2022-10-20T04:08:23.763Z,1021.16
2022-10-20T04:09:23.763Z,1021.15
2022-10-20T04:10:23.765Z,1021.18
2022-10-20T04:11:23.757Z,1021.18
2022-10-20T04:12:23.755Z,1021.21
2022-10-20T04:13:23.749Z,1021.19
2022-10-20T04:14:23.749Z,1021.17
2022-10-20T04:15:23.749Z,1021.19
2022-10-20T04:16:23.748Z,1021.18
2022-10-20T04:17:23.744Z,1021.16
2022-10-20T04:18:23.771Z,1021.12
2022-10-20T04:19:23.734Z,1021.16
2022-10-20T04:20:23.732Z,1021.13
2022-10-20T04:21:23.731Z,1021.10
2022-10-20T04:22:23.729Z,1021.09
2022-10-20T04:23:23.723Z,1021.12
2022-10-20T04:24:23.719Z,1021.11
2022-10-20T04:25:23.718Z,1021.15
2022-10-20T04:26:23.715Z,1021.14
2022-10-20T04:27:23.714Z,1021.17
2022-10-20T04:28:23.713Z,1021.17
2022-10-20T04:29:23.710Z,1021.18
2022-10-20T04:30:23.706Z,1021.17
2022-10-20T04:31:23.699Z,1021.20
2022-10-20T04:32:23.722Z,1021.16
2022-10-20T04:33:23.693Z,1021.09
2022-10-20T04:34:23.711Z,1021.11
2022-10-20T04:35:23.696Z,1021.05
2022-10-20T04:36:23.689Z,1021.00
2022-10-20T04:37:23.684Z,1021.00
2022-10-20T04:38:23.683Z,1020.99
2022-10-20T04:39:23.681Z,1021.00
2022-10-20T04:40:23.677Z,1020.96
2022-10-20T04:41:23.673Z,1020.97
2022-10-20T04:42:23.674Z,1020.97
2022-10-20T04:43:23.670Z,1020.93
2022-10-20T04:44:23.665Z,1020.97
2022-10-20T04:45:23.663Z,1020.95
2022-10-20T04:46:23.665Z,1020.96
2022-10-20T04:47:23.664Z,1020.99
2022-10-20T04:48:23.653Z,1020.92
2022-10-20T04:49:23.650Z,1020.92
2022-10-20T04:50:23.680Z,1020.90
2022-10-20T04:51:23.644Z,1020.87
2022-10-20T04:52:23.645Z,1020.82
2022-10-20T04:53:23.643Z,1020.83
2022-10-20T04:54:23.639Z,1020.79
2022-10-20T04:55:23.633Z,1020.80
2022-10-20T04:56:23.630Z,1020.79
2022-10-20T04:57:23.627Z,1020.78
2022-10-20T04:58:23.626Z,1020.84
2022-10-20T04:59:23.632Z,1020.73
2022-10-20T05:00:23.622Z,1020.73
2022-10-20T05:01:23.661Z,1020.71
2022-10-20T05:02:23.619Z,1020.67
2022-10-20T05:03:23.614Z,1020.68
2022-10-20T05:04:23.610Z,1020.62
2022-10-20T05:05:23.605Z,1020.61
2022-10-20T05:06:23.626Z,1020.64
2022-10-20T05:07:23.606Z,1020.63
2022-10-20T05:08:23.598Z,1020.60
2022-10-20T05:09:23.600Z,1020.57
2022-10-20T05:10:23.600Z,1020.58
2022-10-20T05:11:23.588Z,1020.62
2022-10-20T05:12:23.585Z,1020.63
2022-10-20T05:13:23.589Z,1020.58
2022-10-20T05:14:23.585Z,1020.58
2022-10-20T05:15:23.576Z,1020.56
2022-10-20T05:16:23.584Z,1020.58
2022-10-20T05:17:23.573Z,1020.60
2022-10-20T05:18:23.573Z,1020.57
2022-10-20T05:19:23.567Z,1020.59
2022-10-20T05:20:23.565Z,1020.56
2022-10-20T05:21:23.564Z,1020.56
2022-10-20T05:22:23.584Z,1020.52
2022-10-20T05:23:23.557Z,1020.54
2022-10-20T05:24:26.547Z,1020.49
2022-10-20T05:25:38.959Z,1020.50
2022-10-20T05:26:23.546Z,1020.49
2022-10-20T05:27:23.548Z,1020.49
2022-10-20T05:28:23.537Z,1020.49
2022-10-20T05:29:23.540Z,1020.48
2022-10-20T05:30:23.540Z,1020.49
2022-10-20T05:31:23.532Z,1020.53
2022-10-20T05:32:23.536Z,1020.51
2022-10-20T05:33:23.528Z,1020.53
2022-10-20T05:34:23.524Z,1020.52
2022-10-20T05:35:23.524Z,1020.54
2022-10-20T05:36:23.521Z,1020.58
2022-10-20T05:37:26.571Z,1020.60
2022-10-20T05:38:23.534Z,1020.57
2022-10-20T05:39:23.511Z,1020.51
2022-10-20T05:40:23.507Z,1020.54
2022-10-20T05:41:23.593Z,1020.50
2022-10-20T05:42:23.505Z,1020.50
2022-10-20T05:43:23.500Z,1020.50
2022-10-20T05:44:23.495Z,1020.48
2022-10-20T05:45:23.493Z,1020.50
2022-10-20T05:46:23.488Z,1020.52
2022-10-20T05:47:23.487Z,1020.51
2022-10-20T05:48:23.485Z,1020.56
2022-10-20T05:49:23.479Z,1020.51
2022-10-20T05:50:23.478Z,1020.49
2022-10-20T05:51:23.481Z,1020.48
2022-10-20T05:52:23.474Z,1020.50
2022-10-20T05:53:23.471Z,1020.53
2022-10-20T05:54:23.487Z,1020.54
2022-10-20T05:55:23.460Z,1020.55
2022-10-20T05:56:23.457Z,1020.58
2022-10-20T05:57:23.459Z,1020.63
2022-10-20T05:58:23.458Z,1020.61
2022-10-20T05:59:23.453Z,1020.66
2022-10-20T06:00:23.450Z,1020.65
2022-10-20T06:01:23.558Z,1020.72
2022-10-20T06:02:23.453Z,1020.68
2022-10-20T06:03:24.902Z,1020.73
2022-10-20T06:04:23.539Z,1020.70
2022-10-20T06:05:23.431Z,1020.68
2022-10-20T06:06:23.438Z,1020.71
2022-10-20T06:07:23.428Z,1020.74
2022-10-20T06:08:23.425Z,1020.72
2022-10-20T06:09:23.423Z,1020.69
2022-10-20T06:10:23.440Z,1020.73
2022-10-20T06:11:23.418Z,1020.71
2022-10-20T06:12:23.415Z,1020.73
2022-10-20T06:13:23.411Z,1020.77
2022-10-20T06:14:23.414Z,1020.72
2022-10-20T06:15:23.407Z,1020.78
2022-10-20T06:16:23.402Z,1020.74
2022-10-20T06:17:23.853Z,1020.78
2022-10-20T06:18:23.400Z,1020.77
2022-10-20T06:19:23.393Z,1020.77
2022-10-20T06:20:23.393Z,1020.79
2022-10-20T06:21:23.389Z,1020.80
2022-10-20T06:22:23.389Z,1020.75
2022-10-20T06:23:23.379Z,1020.79
2022-10-20T06:24:23.379Z,1020.74
2022-10-20T06:25:23.377Z,1020.73
2022-10-20T06:26:23.394Z,1020.71
2022-10-20T06:27:23.370Z,1020.70
2022-10-20T06:28:23.371Z,1020.71
2022-10-20T06:29:23.364Z,1020.71
2022-10-20T06:30:23.361Z,1020.76
2022-10-20T06:31:23.357Z,1020.74
2022-10-20T06:32:23.359Z,1020.75
2022-10-20T06:33:23.357Z,1020.75
2022-10-20T06:34:23.353Z,1020.74
2022-10-20T06:35:23.356Z,1020.72
2022-10-20T06:36:23.347Z,1020.71
2022-10-20T06:37:23.337Z,1020.70
2022-10-20T06:38:23.338Z,1020.73
2022-10-20T06:39:23.336Z,1020.75
2022-10-20T06:40:23.336Z,1020.77
2022-10-20T06:41:23.331Z,1020.81
2022-10-20T06:42:23.398Z,1020.83
2022-10-20T06:43:23.324Z,1020.83
2022-10-20T06:44:23.330Z,1020.84
2022-10-20T06:45:23.316Z,1020.86
2022-10-20T06:46:23.320Z,1020.87
2022-10-20T06:47:23.321Z,1020.86
2022-10-20T06:48:23.316Z,1020.84
2022-10-20T06:49:23.308Z,1020.82
2022-10-20T06:50:23.304Z,1020.87
2022-10-20T06:51:23.304Z,1020.82
2022-10-20T06:52:23.301Z,1020.84
2022-10-20T06:53:23.298Z,1020.85
2022-10-20T06:54:23.298Z,1020.89
2022-10-20T06:55:23.306Z,1020.82
2022-10-20T06:56:23.291Z,1020.84
2022-10-20T06:57:23.282Z,1020.87
2022-10-20T06:58:23.303Z,1020.87
2022-10-20T06:59:23.282Z,1020.87
2022-10-20T07:00:23.359Z,1020.83
2022-10-20T07:01:23.411Z,1020.83
2022-10-20T07:02:23.274Z,1020.83
2022-10-20T07:03:23.268Z,1020.83
2022-10-20T07:04:23.280Z,1020.81
2022-10-20T07:05:23.267Z,1020.82
2022-10-20T07:06:23.262Z,1020.81
2022-10-20T07:07:23.360Z,1020.77
2022-10-20T07:08:23.263Z,1020.76
2022-10-20T07:09:23.261Z,1020.75
2022-10-20T07:10:23.251Z,1020.80
2022-10-20T07:11:23.252Z,1020.81
2022-10-20T07:12:23.244Z,1020.78
2022-10-20T07:13:23.245Z,1020.83
2022-10-20T07:14:23.271Z,1020.80
2022-10-20T07:15:23.239Z,1020.85
2022-10-20T07:16:23.240Z,1020.81
2022-10-20T07:17:23.231Z,1020.85
2022-10-20T07:18:23.232Z,1020.83
2022-10-20T07:19:23.233Z,1020.79
2022-10-20T07:20:23.233Z,1020.79
2022-10-20T07:21:23.222Z,1020.79
2022-10-20T07:22:23.222Z,1020.76
2022-10-20T07:23:23.220Z,1020.73
2022-10-20T07:24:23.219Z,1020.72
2022-10-20T07:25:23.214Z,1020.74
2022-10-20T07:26:23.218Z,1020.75
2022-10-20T07:27:23.214Z,1020.71
2022-10-20T07:28:23.211Z,1020.72
2022-10-20T07:29:23.222Z,1020.70
2022-10-20T07:30:23.224Z,1020.71
2022-10-20T07:31:23.210Z,1020.69
2022-10-20T07:32:23.200Z,1020.79
2022-10-20T07:33:23.198Z,1020.73
2022-10-20T07:34:27.606Z,1020.76
2022-10-20T07:35:23.196Z,1020.76
2022-10-20T07:36:23.198Z,1020.73
2022-10-20T07:37:23.190Z,1020.71
2022-10-20T07:38:23.191Z,1020.72
2022-10-20T07:39:23.189Z,1020.78
2022-10-20T07:41:23.182Z,1020.69
2022-10-20T07:42:23.177Z,1020.72
2022-10-20T07:43:23.182Z,1020.70
2022-10-20T07:44:23.174Z,1020.76
2022-10-20T07:45:23.179Z,1020.69
2022-10-20T07:46:23.198Z,1020.63
2022-10-20T07:47:23.170Z,1020.65
2022-10-20T07:48:23.168Z,1020.66
2022-10-20T07:50:23.216Z,1020.63
2022-10-20T07:51:23.171Z,1020.66
2022-10-20T07:52:23.161Z,1020.66
2022-10-20T07:53:23.162Z,1020.69
2022-10-20T07:54:23.160Z,1020.68
2022-10-20T07:55:38.062Z,1020.65
2022-10-20T07:56:23.156Z,1020.66
2022-10-20T07:57:23.159Z,1020.65
2022-10-20T07:58:23.153Z,1020.65
2022-10-20T07:59:23.153Z,1020.64
2022-10-20T08:00:23.194Z,1020.59
2022-10-20T08:01:23.212Z,1020.54
2022-10-20T08:02:23.170Z,1020.55
2022-10-20T08:03:23.148Z,1020.61
2022-10-20T08:04:23.138Z,1020.56
2022-10-20T08:05:23.141Z,1020.58
2022-10-20T08:06:23.139Z,1020.55
2022-10-20T08:07:23.141Z,1020.57
2022-10-20T08:08:23.138Z,1020.55
2022-10-20T08:09:23.139Z,1020.56
2022-10-20T08:10:23.251Z,1020.51
2022-10-20T08:11:23.134Z,1020.47
2022-10-20T08:12:23.133Z,1020.41
2022-10-20T08:13:23.129Z,1020.48
2022-10-20T08:14:23.126Z,1020.55
2022-10-20T08:15:23.133Z,1020.58
2022-10-20T08:16:23.372Z,1020.56
2022-10-20T08:17:23.132Z,1020.52
2022-10-20T08:18:23.169Z,1020.49
2022-10-20T08:19:23.650Z,1020.51
2022-10-20T08:20:25.023Z,1020.50
2022-10-20T08:21:23.120Z,1020.43
2022-10-20T08:22:23.119Z,1020.43
2022-10-20T08:23:23.120Z,1020.44
2022-10-20T08:24:23.121Z,1020.41
2022-10-20T08:25:23.116Z,1020.41
2022-10-20T08:26:23.114Z,1020.41
2022-10-20T08:27:23.125Z,1020.50
2022-10-20T08:28:26.176Z,1020.46
2022-10-20T08:29:23.118Z,1020.58
2022-10-20T08:30:24.292Z,1020.81
2022-10-20T08:31:23.126Z,1020.76
2022-10-20T08:32:23.115Z,1020.58
2022-10-20T08:33:23.116Z,1020.51
2022-10-20T08:34:23.144Z,1020.54
2022-10-20T08:35:23.124Z,1020.75
2022-10-20T08:36:23.110Z,1020.93
2022-10-20T08:37:23.120Z,1021.01
2022-10-20T08:38:23.115Z,1021.02
2022-10-20T08:39:23.112Z,1020.85
2022-10-20T08:40:23.114Z,1020.68
2022-10-20T08:41:23.115Z,1020.50
2022-10-20T08:42:23.111Z,1020.44
2022-10-20T08:43:23.114Z,1020.43
2022-10-20T08:44:23.116Z,1020.42
2022-10-20T08:45:23.114Z,1020.36
2022-10-20T08:46:23.117Z,1020.37
2022-10-20T08:47:23.612Z,1020.35
2022-10-20T08:48:23.117Z,1020.37
2022-10-20T08:49:23.222Z,1020.40
2022-10-20T08:50:23.136Z,1020.38
2022-10-20T08:51:23.117Z,1020.43
2022-10-20T08:52:23.116Z,1020.38
2022-10-20T08:53:23.116Z,1020.42
2022-10-20T08:54:23.201Z,1020.61
2022-10-20T08:55:23.123Z,1020.78
2022-10-20T08:56:23.114Z,1020.96
2022-10-20T08:57:23.121Z,1021.04
2022-10-20T08:58:23.117Z,1021.06
2022-10-20T08:59:23.122Z,1021.13
2022-10-20T09:00:23.120Z,1021.15
2022-10-20T09:01:23.248Z,1021.10
2022-10-20T09:02:23.148Z,1021.15
2022-10-20T09:03:23.124Z,1021.25
2022-10-20T09:04:23.122Z,1021.20
2022-10-20T09:05:23.127Z,1021.23
2022-10-20T09:06:23.145Z,1021.20
2022-10-20T09:07:23.127Z,1021.27
2022-10-20T09:08:23.133Z,1021.23
2022-10-20T09:09:23.169Z,1021.18
2022-10-20T09:10:23.126Z,1021.13
2022-10-20T09:11:23.133Z,1021.12
2022-10-20T09:12:26.380Z,1021.12
2022-10-20T09:13:23.131Z,1021.13
2022-10-20T09:14:23.136Z,1021.11
2022-10-20T09:15:23.139Z,1021.04
2022-10-20T09:16:33.587Z,1021.09
2022-10-20T09:17:23.142Z,1021.03
2022-10-20T09:18:23.137Z,1021.01
2022-10-20T09:19:23.147Z,1021.02
2022-10-20T09:20:23.165Z,1020.99
2022-10-20T09:21:23.147Z,1021.03
2022-10-20T09:22:23.188Z,1021.01
2022-10-20T09:23:40.145Z,1021.02
2022-10-20T09:24:23.155Z,1020.97
2022-10-20T09:25:23.158Z,1021.02
2022-10-20T09:26:37.549Z,1020.91
2022-10-20T09:27:23.165Z,1020.98
2022-10-20T09:28:23.163Z,1021.05
2022-10-20T09:29:23.166Z,1021.13
2022-10-20T09:30:23.165Z,1021.17
2022-10-20T09:31:23.175Z,1021.18
2022-10-20T09:32:52.998Z,1021.11
2022-10-20T09:33:23.179Z,1021.17
2022-10-20T09:34:23.189Z,1020.99
2022-10-20T09:35:23.189Z,1021.02
2022-10-20T09:36:23.295Z,1021.08
2022-10-20T09:37:23.194Z,1021.05
2022-10-20T09:38:23.234Z,1021.05
2022-10-20T09:39:23.213Z,1020.99
2022-10-20T09:40:23.206Z,1021.09
2022-10-20T09:41:23.210Z,1021.07
2022-10-20T09:42:23.220Z,1021.15
2022-10-20T09:43:23.223Z,1021.14
2022-10-20T09:44:23.227Z,1021.10
2022-10-20T09:45:23.229Z,1021.11
2022-10-20T09:46:23.233Z,1021.03
2022-10-20T09:47:23.243Z,1021.03
2022-10-20T09:48:23.249Z,1021.11
2022-10-20T09:49:23.253Z,1021.05
2022-10-20T09:50:23.262Z,1021.10
2022-10-20T09:51:23.267Z,1021.13
2022-10-20T09:52:23.269Z,1021.14
2022-10-20T09:53:23.280Z,1021.02
2022-10-20T09:54:23.333Z,1021.02
2022-10-20T09:55:23.289Z,1021.13
2022-10-20T09:56:23.297Z,1021.05
2022-10-20T09:57:23.301Z,1021.03
2022-10-20T09:58:23.305Z,1020.99
2022-10-20T09:59:23.317Z,1021.01
2022-10-20T10:00:36.318Z,1020.97
2022-10-20T10:01:23.350Z,1020.90
2022-10-20T10:02:23.337Z,1020.67
2022-10-20T10:03:23.351Z,1020.64
2022-10-20T10:04:23.356Z,1020.65
2022-10-20T10:05:23.363Z,1020.72
2022-10-20T10:06:23.369Z,1020.81
2022-10-20T10:07:23.377Z,1020.81
2022-10-20T10:08:23.382Z,1020.77
2022-10-20T10:09:26.526Z,1020.58
2022-10-20T10:10:23.422Z,1020.29
2022-10-20T10:11:23.407Z,1020.10
2022-10-20T10:12:23.419Z,1020.06
2022-10-20T10:13:24.937Z,1019.98
2022-10-20T10:14:23.431Z,1019.93
2022-10-20T10:15:23.440Z,1019.98
2022-10-20T10:16:23.447Z,1019.98
2022-10-20T10:17:23.462Z,1020.02
2022-10-20T10:18:23.462Z,1020.35
2022-10-20T10:19:23.471Z,1020.67
2022-10-20T10:20:23.487Z,1020.72
2022-10-20T10:21:23.490Z,1020.78
2022-10-20T10:22:23.499Z,1020.81
2022-10-20T10:23:23.501Z,1020.91
2022-10-20T10:24:23.513Z,1020.91
2022-10-20T10:25:23.521Z,1020.93
2022-10-20T10:26:23.557Z,1020.92
2022-10-20T10:27:23.536Z,1020.99
2022-10-20T10:28:23.572Z,1020.96
2022-10-20T10:29:23.553Z,1020.88
2022-10-20T10:30:23.556Z,1020.84
2022-10-20T10:31:23.595Z,1020.83
2022-10-20T10:32:23.576Z,1020.84
2022-10-20T10:33:23.593Z,1020.66
2022-10-20T10:34:23.607Z,1020.86
2022-10-20T10:35:23.609Z,1020.74
2022-10-20T10:36:23.622Z,1020.59
2022-10-20T10:37:23.657Z,1020.54
2022-10-20T10:38:23.642Z,1020.51
2022-10-20T10:39:23.654Z,1020.57
2022-10-20T10:40:23.659Z,1020.50
2022-10-20T10:41:23.672Z,1020.43
2022-10-20T10:42:23.711Z,1020.48
2022-10-20T10:43:23.688Z,1020.44
2022-10-20T10:44:23.708Z,1020.55
2022-10-20T10:45:23.715Z,1020.45
2022-10-20T10:46:23.723Z,1020.37
2022-10-20T10:47:23.741Z,1020.39
2022-10-20T10:48:23.743Z,1020.28
2022-10-20T10:49:23.760Z,1020.25
2022-10-20T10:50:23.770Z,1020.28
2022-10-20T10:51:23.786Z,1020.32
2022-10-20T10:52:23.796Z,1020.37
2022-10-20T10:53:23.806Z,1020.49
2022-10-20T10:54:23.818Z,1020.50
2022-10-20T10:55:47.057Z,1020.52
2022-10-20T10:56:23.842Z,1020.41
2022-10-20T10:57:23.856Z,1020.32
2022-10-20T10:58:23.877Z,1020.23
2022-10-20T10:59:23.879Z,1020.31
2022-10-20T11:00:23.888Z,1020.38
2022-10-20T11:01:23.903Z,1020.33
2022-10-20T11:02:23.910Z,1020.20
2022-10-20T11:03:23.926Z,1020.29
2022-10-20T11:04:23.935Z,1020.34
2022-10-20T11:05:23.963Z,1020.44
2022-10-20T11:06:23.965Z,1020.12
2022-10-20T11:07:23.975Z,1020.06
2022-10-20T11:08:23.989Z,1020.08
2022-10-20T11:09:24.005Z,1020.16
2022-10-20T11:10:24.011Z,1020.17
2022-10-20T11:11:24.225Z,1020.13
2022-10-20T11:12:24.041Z,1019.84
2022-10-20T11:13:26.205Z,1019.73
2022-10-20T11:14:24.096Z,1019.68
2022-10-20T11:15:24.085Z,1019.68
2022-10-20T11:16:24.099Z,1019.76
2022-10-20T11:17:24.108Z,1019.70
2022-10-20T11:18:24.116Z,1019.69
2022-10-20T11:19:24.134Z,1019.67
2022-10-20T11:20:24.145Z,1019.51
2022-10-20T11:21:24.158Z,1019.49
2022-10-20T11:22:24.171Z,1019.50
2022-10-20T11:23:24.302Z,1019.50
2022-10-20T11:24:24.198Z,1019.54
2022-10-20T11:25:24.217Z,1019.66
2022-10-20T11:26:26.762Z,1019.49
2022-10-20T11:27:24.243Z,1019.59
2022-10-20T11:28:24.254Z,1019.46
2022-10-20T11:29:24.265Z,1019.49
2022-10-20T11:30:24.305Z,1019.61
2022-10-20T11:31:24.300Z,1019.56
2022-10-20T11:32:24.349Z,1019.61
2022-10-20T11:33:24.329Z,1019.81
2022-10-20T11:34:24.335Z,1019.59
2022-10-20T11:35:24.357Z,1019.54
2022-10-20T11:36:24.364Z,1019.47
2022-10-20T11:37:24.379Z,1019.49
2022-10-20T11:38:24.395Z,1019.27
2022-10-20T11:39:24.419Z,1018.45
2022-10-20T11:40:24.420Z,1018.35
2022-10-20T11:41:24.433Z,1018.29
2022-10-20T11:42:24.443Z,1018.33
2022-10-20T11:43:24.462Z,1018.62
2022-10-20T11:44:24.478Z,1018.57
2022-10-20T11:45:24.487Z,1018.18
2022-10-20T11:46:24.518Z,1018.06
2022-10-20T11:47:24.512Z,1018.11
2022-10-20T11:48:24.536Z,1018.07
2022-10-20T11:49:24.537Z,1018.06
2022-10-20T11:50:24.554Z,1018.08
2022-10-20T11:51:24.566Z,1018.06
2022-10-20T11:52:24.580Z,1018.02
2022-10-20T11:53:24.597Z,1018.00
2022-10-20T11:54:24.601Z,1018.01
2022-10-20T11:55:24.613Z,1018.03
2022-10-20T11:56:24.630Z,1018.01
2022-10-20T11:57:24.643Z,1017.88
2022-10-20T11:58:24.655Z,1017.92
2022-10-20T11:59:24.670Z,1018.20
2022-10-20T12:00:24.684Z,1018.55
2022-10-20T12:01:24.693Z,1018.57
2022-10-20T12:02:24.722Z,1018.31
2022-10-20T12:03:24.714Z,1017.89
2022-10-20T12:04:24.724Z,1017.90
2022-10-20T12:05:24.735Z,1017.95
2022-10-20T12:06:24.749Z,1017.82
2022-10-20T12:07:24.760Z,1017.74
2022-10-20T12:08:29.905Z,1017.76
2022-10-20T12:09:24.873Z,1017.76